Time;durP1;ratioP1;P1;durP2;ratioP2;P2;SDS_P1;SDS_P2;PMS_P1;PMS_P2;Temp;Humidity;BMP_temperature;BMP_pressure;BME280_temperature;BME280_humidity;BME280_pressure;Samples;Min_cycle;Max_cycle;Signal;HPM_P1;HPM_P2
2023/10/06 03:30:41;;;;;;;3.78;2.60;;;6.80;99.90;;;;;;6083319;23;20195;-62
2023/10/06 03:33:12;;;;;;;4.00;2.92;;;6.80;99.90;;;;;;4940708;29;20229;-64
2023/10/06 03:35:45;;;;;;;4.20;2.97;;;6.80;99.90;;;;;;4942169;29;20205;-64
2023/10/06 03:41:07;;;;;;;4.32;2.45;;;6.80;99.90;;;;;;4943780;28;20224;-63
2023/10/06 03:43:40;;;;;;;4.03;2.30;;;6.80;99.90;;;;;;4971313;28;20204;-63
2023/10/06 03:46:09;;;;;;;7.30;3.30;;;6.80;99.90;;;;;;4974285;28;20521;-64
2023/10/06 03:48:37;;;;;;;3.90;2.92;;;6.80;99.90;;;;;;4974770;28;20196;-64
2023/10/06 03:51:05;;;;;;;3.88;2.70;;;6.80;99.90;;;;;;4974474;28;20259;-64
2023/10/06 03:53:32;;;;;;;4.95;2.75;;;6.80;99.90;;;;;;4974998;28;20235;-65
2023/10/06 03:55:59;;;;;;;3.58;2.58;;;6.80;99.90;;;;;;4970946;28;20216;-65
2023/10/06 03:58:28;;;;;;;4.30;2.60;;;6.80;99.90;;;;;;4970189;28;20242;-65
2023/10/06 04:00:55;;;;;;;2.30;2.10;;;6.70;99.90;;;;;;4974284;28;20232;-64
2023/10/06 04:03:23;;;;;;;3.50;2.95;;;6.70;99.90;;;;;;4974466;28;20219;-65
2023/10/06 04:05:51;;;;;;;4.30;3.30;;;6.80;99.90;;;;;;4973954;28;20759;-65
2023/10/06 04:08:20;;;;;;;4.82;3.08;;;6.70;99.90;;;;;;4974430;28;20604;-65
2023/10/06 04:10:48;;;;;;;4.68;2.88;;;6.70;99.90;;;;;;4974139;28;20230;-65
2023/10/06 04:13:16;;;;;;;4.57;2.95;;;6.70;99.90;;;;;;4975054;28;20302;-64
2023/10/06 04:15:48;;;;;;;3.97;2.53;;;6.70;99.90;;;;;;4974292;28;20207;-64
2023/10/06 04:18:17;;;;;;;5.13;2.75;;;6.70;99.90;;;;;;4974299;28;20270;-64
2023/10/06 04:20:46;;;;;;;4.53;2.65;;;6.70;99.90;;;;;;4974005;28;20239;-65
2023/10/06 04:23:14;;;;;;;6.70;2.70;;;6.70;99.90;;;;;;4974058;28;20239;-64
2023/10/06 04:25:42;;;;;;;3.92;2.78;;;6.70;99.90;;;;;;4973506;28;20252;-65
2023/10/06 04:28:11;;;;;;;4.78;3.28;;;6.70;99.90;;;;;;4974144;28;20235;-65
2023/10/06 04:30:38;;;;;;;3.83;2.97;;;6.70;99.90;;;;;;4973814;28;20525;-65
2023/10/06 04:33:08;;;;;;;4.47;2.67;;;6.60;99.90;;;;;;4973890;28;20212;-65
2023/10/06 04:35:35;;;;;;;5.35;2.83;;;6.60;99.90;;;;;;4972568;28;20259;-64
2023/10/06 04:38:05;;;;;;;3.75;2.50;;;6.60;99.90;;;;;;4973808;28;20231;-65
2023/10/06 04:40:33;;;;;;;4.32;2.65;;;6.60;99.90;;;;;;4969833;28;20203;-64
2023/10/06 04:43:00;;;;;;;4.88;2.95;;;6.60;99.90;;;;;;4969739;28;20208;-65
2023/10/06 04:45:27;;;;;;;3.35;2.47;;;6.60;99.90;;;;;;4973318;28;20204;-65
2023/10/06 04:47:55;;;;;;;9.20;3.30;;;6.60;99.90;;;;;;4973534;28;20586;-65
2023/10/06 04:50:22;;;;;;;3.83;2.72;;;6.60;99.90;;;;;;4973731;28;20295;-65
2023/10/06 04:52:49;;;;;;;3.55;2.75;;;6.60;99.90;;;;;;4973362;28;20204;-65
2023/10/06 04:55:18;;;;;;;5.68;2.95;;;6.60;99.90;;;;;;4972975;28;20204;-64
2023/10/06 04:57:44;;;;;;;6.00;2.95;;;6.60;99.90;;;;;;4973418;28;20204;-65
2023/10/06 05:00:15;;;;;;;5.97;3.28;;;6.60;99.90;;;;;;4973372;28;20573;-64
2023/10/06 05:02:44;;;;;;;7.65;3.10;;;6.60;99.90;;;;;;4973675;28;20737;-65
2023/10/06 05:05:11;;;;;;;6.13;3.53;;;6.60;99.90;;;;;;4972723;28;20565;-65
2023/10/06 05:07:38;;;;;;;5.88;3.25;;;6.60;99.90;;;;;;4973133;28;20689;-64
2023/10/06 05:10:08;;;;;;;4.40;2.95;;;6.50;99.90;;;;;;4973042;28;20235;-65
2023/10/06 05:12:37;;;;;;;4.13;2.97;;;6.50;99.90;;;;;;4969072;28;20604;-65
2023/10/06 05:15:08;;;;;;;3.17;2.60;;;6.50;99.90;;;;;;4972633;28;20244;-65
2023/10/06 05:17:35;;;;;;;4.85;3.42;;;6.50;99.90;;;;;;4969843;28;20635;-64
2023/10/06 05:20:02;;;;;;;5.60;2.80;;;6.50;99.90;;;;;;4973222;28;20219;-64
2023/10/06 05:22:28;;;;;;;4.28;3.00;;;6.50;99.90;;;;;;4972764;28;20318;-64
2023/10/06 05:24:55;;;;;;;4.38;3.13;;;6.50;99.90;;;;;;4972801;28;20290;-65
2023/10/06 05:27:22;;;;;;;4.03;2.90;;;6.50;99.90;;;;;;4972677;28;20227;-65
2023/10/06 05:29:51;;;;;;;4.35;2.70;;;6.50;99.90;;;;;;4972775;28;20235;-64
2023/10/06 05:32:18;;;;;;;6.20;3.75;;;6.50;99.90;;;;;;4972706;28;20642;-65
2023/10/06 05:34:44;;;;;;;8.50;3.08;;;6.50;99.90;;;;;;4972547;28;20214;-65
2023/10/06 05:37:12;;;;;;;5.15;2.88;;;6.50;99.90;;;;;;4972244;28;20200;-64
2023/10/06 05:39:41;;;;;;;4.72;3.05;;;6.50;99.90;;;;;;4972423;28;20298;-64
2023/10/06 05:42:10;;;;;;;3.92;3.45;;;6.50;99.90;;;;;;4972370;28;20255;-65
2023/10/06 05:44:37;;;;;;;4.75;3.40;;;6.50;99.90;;;;;;4972439;28;20664;-65
2023/10/06 05:47:08;;;;;;;4.15;3.00;;;6.50;99.90;;;;;;4971963;28;20238;-64
2023/10/06 05:49:35;;;;;;;4.50;3.10;;;6.50;99.90;;;;;;4972344;28;20672;-64
2023/10/06 05:52:03;;;;;;;4.20;2.95;;;6.40;99.90;;;;;;4972288;28;20227;-64
2023/10/06 05:54:31;;;;;;;4.45;3.20;;;6.50;99.90;;;;;;4972289;28;20697;-65
2023/10/06 05:56:58;;;;;;;4.55;3.30;;;6.50;99.90;;;;;;4972048;28;20254;-65
2023/10/06 05:59:27;;;;;;;4.43;3.13;;;6.50;99.90;;;;;;4972016;28;20204;-65
2023/10/06 06:01:57;;;;;;;4.80;3.55;;;6.50;99.90;;;;;;4972178;28;20235;-64
2023/10/06 06:04:27;;;;;;;6.30;4.00;;;6.50;99.90;;;;;;4971537;28;20513;-64
2023/10/06 06:06:56;;;;;;;5.45;3.53;;;6.50;99.90;;;;;;4971719;28;20242;-64
2023/10/06 06:09:24;;;;;;;4.47;3.42;;;6.60;99.90;;;;;;4972522;28;20204;-65
2023/10/06 06:11:50;;;;;;;5.82;3.15;;;6.60;99.90;;;;;;4972155;28;20220;-65
2023/10/06 06:14:20;;;;;;;7.10;3.58;;;6.60;99.90;;;;;;4972237;28;20591;-65
2023/10/06 06:16:47;;;;;;;5.10;3.25;;;6.70;99.90;;;;;;4971752;28;20215;-64
2023/10/06 06:19:14;;;;;;;6.72;4.18;;;6.70;99.90;;;;;;4972193;28;20290;-64
2023/10/06 06:21:44;;;;;;;5.40;3.58;;;6.70;99.90;;;;;;4972412;28;20227;-65
2023/10/06 06:24:11;;;;;;;6.78;3.50;;;6.80;99.90;;;;;;4972283;28;20295;-65
2023/10/06 06:26:38;;;;;;;4.82;3.22;;;6.80;99.90;;;;;;4971511;28;20208;-64
2023/10/06 06:29:08;;;;;;;5.05;4.03;;;6.90;99.90;;;;;;4972042;28;20595;-64
2023/10/06 06:31:35;;;;;;;5.80;3.17;;;7.00;99.90;;;;;;4972084;28;20231;-63
2023/10/06 06:34:04;;;;;;;3.63;3.33;;;7.00;99.90;;;;;;4972002;28;20211;-65
2023/10/06 06:36:32;;;;;;;5.72;3.30;;;7.00;99.90;;;;;;4971724;28;20212;-64
2023/10/06 06:39:00;;;;;;;3.83;2.75;;;7.10;99.90;;;;;;4971894;28;20254;-64
2023/10/06 06:41:28;;;;;;;3.70;3.40;;;7.20;99.90;;;;;;4971921;28;20259;-64
2023/10/06 06:43:58;;;;;;;5.93;3.50;;;7.30;99.90;;;;;;4971411;28;20223;-64
2023/10/06 06:46:26;;;;;;;5.53;3.50;;;7.40;99.90;;;;;;4968628;28;20239;-65
2023/10/06 06:48:53;;;;;;;6.15;3.70;;;7.40;99.90;;;;;;4971673;28;20255;-64
2023/10/06 06:51:27;;;;;;;4.25;3.38;;;7.60;99.90;;;;;;4971871;28;20223;-64
2023/10/06 06:53:56;;;;;;;5.80;3.63;;;7.60;99.90;;;;;;4971762;28;20208;-64
2023/10/06 06:56:24;;;;;;;6.63;4.45;;;7.90;99.90;;;;;;4971405;28;20309;-65
2023/10/06 06:58:51;;;;;;;5.60;3.88;;;8.00;99.90;;;;;;4972033;28;20562;-65
2023/10/06 07:01:18;;;;;;;7.75;4.45;;;8.20;99.90;;;;;;4975520;28;20720;-64
2023/10/06 07:03:45;;;;;;;6.47;4.55;;;8.40;99.90;;;;;;4975431;28;20213;-65
2023/10/06 07:06:14;;;;;;;6.90;4.68;;;8.60;99.90;;;;;;4975516;28;20214;-64
2023/10/06 07:08:40;;;;;;;7.40;4.72;;;8.80;99.90;;;;;;4975290;28;20227;-64
2023/10/06 07:11:10;;;;;;;7.22;3.88;;;9.00;99.90;;;;;;4975583;28;20674;-65
2023/10/06 07:13:38;;;;;;;7.32;4.18;;;9.20;99.90;;;;;;4975155;28;20218;-64
2023/10/06 07:16:05;;;;;;;7.13;5.30;;;9.50;99.90;;;;;;4975008;28;20218;-65
2023/10/06 07:18:32;;;;;;;7.68;5.00;;;9.70;99.90;;;;;;4975330;28;20217;-64
2023/10/06 07:21:08;;;;;;;6.10;4.15;;;9.90;99.90;;;;;;4966114;28;20260;-64
2023/10/06 07:23:37;;;;;;;9.13;5.88;;;10.10;99.90;;;;;;4958958;28;20221;-64
2023/10/06 07:26:09;;;;;;;11.90;4.50;;;10.40;99.90;;;;;;4968668;28;20242;-65
2023/10/06 07:28:38;;;;;;;6.80;4.13;;;10.70;99.90;;;;;;4973973;28;20237;-64
2023/10/06 07:31:09;;;;;;;8.25;4.78;;;10.90;99.90;;;;;;4974397;28;20243;-65
2023/10/06 07:33:37;;;;;;;9.18;4.40;;;11.20;99.90;;;;;;4974112;28;20318;-65
2023/10/06 07:36:13;;;;;;;5.85;4.38;;;11.40;99.90;;;;;;4973891;28;20224;-64
2023/10/06 07:38:41;;;;;;;5.97;4.35;;;11.70;99.90;;;;;;4973831;28;20715;-65
2023/10/06 07:41:07;;;;;;;8.85;4.72;;;11.90;99.90;;;;;;4974442;28;20287;-65
2023/10/06 07:43:34;;;;;;;6.55;5.03;;;12.10;99.90;;;;;;4973874;28;20212;-64
2023/10/06 07:46:07;;;;;;;8.23;4.43;;;12.30;99.90;;;;;;4967799;28;20216;-64
2023/10/06 07:48:36;;;;;;;5.43;4.35;;;12.50;99.90;;;;;;4973958;28;20310;-65
2023/10/06 07:51:07;;;;;;;5.90;4.53;;;12.70;99.90;;;;;;4974013;28;20286;-65
2023/10/06 07:53:35;;;;;;;6.37;4.23;;;12.90;99.90;;;;;;4973892;28;20494;-65
2023/10/06 07:56:06;;;;;;;6.37;4.47;;;13.10;99.90;;;;;;4959794;28;20498;-65
2023/10/06 07:58:33;;;;;;;5.67;3.40;;;13.20;99.90;;;;;;4974103;28;20754;-65
2023/10/06 08:01:02;;;;;;;6.30;4.50;;;13.50;99.90;;;;;;4967978;28;20479;-66
2023/10/06 08:03:30;;;;;;;6.23;3.73;;;13.60;99.90;;;;;;4974419;28;20475;-66
2023/10/06 08:06:01;;;;;;;7.67;3.90;;;13.80;99.90;;;;;;4973846;28;20475;-66
2023/10/06 08:08:28;;;;;;;6.67;3.27;;;14.00;99.90;;;;;;4973399;28;20546;-66
2023/10/06 08:10:56;;;;;;;5.90;4.43;;;14.20;99.90;;;;;;4973272;28;20508;-66
2023/10/06 08:13:23;;;;;;;6.87;3.40;;;14.40;99.90;;;;;;4973811;28;20500;-66
2023/10/06 08:15:51;;;;;;;8.50;3.87;;;14.50;99.90;;;;;;4973205;28;20462;-66
2023/10/06 08:18:18;;;;;;;4.83;3.10;;;14.60;99.90;;;;;;4973488;28;20542;-66
2023/10/06 08:20:47;;;;;;;5.30;3.43;;;14.80;99.90;;;;;;4973036;28;21000;-66
2023/10/06 08:23:16;;;;;;;10.43;5.03;;;15.00;99.90;;;;;;4973674;28;20560;-66
2023/10/06 08:25:44;;;;;;;6.77;2.90;;;15.20;99.90;;;;;;4972375;28;20468;-66
2023/10/06 08:28:11;;;;;;;5.80;3.60;;;15.40;99.90;;;;;;4973686;28;20490;-66
2023/10/06 08:30:38;;;;;;;5.67;3.67;;;15.60;99.90;;;;;;4973353;28;20490;-66
2023/10/06 08:33:09;;;;;;;4.67;3.20;;;15.90;99.90;;;;;;4973722;28;20851;-66
2023/10/06 08:35:36;;;;;;;11.00;4.70;;;16.00;99.90;;;;;;4971855;28;20534;-66
2023/10/06 08:38:07;;;;;;;6.03;3.60;;;16.20;99.90;;;;;;4973614;28;20840;-66
2023/10/06 08:40:36;;;;;;;7.57;3.43;;;16.20;99.90;;;;;;4973493;28;20584;-66
2023/10/06 08:43:06;;;;;;;4.83;3.13;;;16.20;99.90;;;;;;4966543;28;20496;-66
2023/10/06 08:45:40;;;;;;;3.80;3.13;;;16.40;99.90;;;;;;4972270;28;20561;-66
2023/10/06 08:48:10;;;;;;;5.47;3.27;;;16.50;99.90;;;;;;4967061;28;20501;-66
2023/10/06 08:50:38;;;;;;;5.30;3.53;;;16.60;99.90;;;;;;4972955;28;20519;-66
2023/10/06 08:53:09;;;;;;;6.27;3.77;;;16.70;99.90;;;;;;4972784;28;20474;-66
2023/10/06 08:55:38;;;;;;;5.73;3.47;;;16.90;99.90;;;;;;4971080;28;20466;-66
2023/10/06 08:58:06;;;;;;;6.17;3.47;;;17.00;99.90;;;;;;4973342;28;20474;-66
2023/10/06 09:00:35;;;;;;;6.90;3.53;;;17.20;99.90;;;;;;4973230;28;20459;-66
2023/10/06 09:03:07;;;;;;;6.80;4.00;;;17.30;99.90;;;;;;4973560;28;20887;-66
2023/10/06 09:05:36;;;;;;;4.53;3.00;;;17.40;99.90;;;;;;4972821;28;20467;-66
2023/10/06 09:08:05;;;;;;;5.40;3.17;;;17.50;99.90;;;;;;4966563;28;20519;-66
2023/10/06 09:10:34;;;;;;;4.50;3.90;;;17.70;99.90;;;;;;4973230;28;20463;-66
2023/10/06 09:13:02;;;;;;;5.40;3.47;;;17.90;99.90;;;;;;4965882;28;20836;-66
2023/10/06 09:15:29;;;;;;;6.20;3.50;;;18.00;99.90;;;;;;4972824;28;20460;-66
2023/10/06 09:17:57;;;;;;;8.27;3.83;;;18.10;99.90;;;;;;4972457;28;20459;-66
2023/10/06 09:20:32;;;;;;;4.47;3.20;;;18.20;99.90;;;;;;4973737;28;20459;-66
2023/10/06 09:23:00;;;;;;;4.67;3.00;;;18.30;99.90;;;;;;4972657;28;20666;-66
2023/10/06 09:25:27;;;;;;;3.13;2.67;;;18.50;99.90;;;;;;4972684;28;20965;-66
2023/10/06 09:28:08;;;;;;;5.03;3.30;;;18.60;99.90;;;;;;4972497;28;20537;-66
2023/10/06 09:30:50;;;;;;;8.20;3.47;;;18.70;99.90;;;;;;4972607;28;20917;-66
2023/10/06 09:33:17;;;;;;;4.60;3.30;;;18.80;99.90;;;;;;4973050;28;20463;-66
2023/10/06 09:35:44;;;;;;;3.53;2.63;;;18.80;99.90;;;;;;4972012;28;20815;-66
2023/10/06 09:38:13;;;;;;;4.90;2.87;;;18.90;99.90;;;;;;4972755;28;20476;-66
2023/10/06 09:40:44;;;;;;;6.00;3.13;;;18.90;99.90;;;;;;4972493;28;20493;-66
2023/10/06 09:43:16;;;;;;;6.40;3.30;;;19.00;99.90;;;;;;4972653;28;20987;-66
2023/10/06 09:45:44;;;;;;;6.63;3.80;;;19.10;99.90;;;;;;4971765;28;20462;-66
2023/10/06 09:48:15;;;;;;;5.93;3.40;;;19.20;99.90;;;;;;4972747;28;20527;-66
2023/10/06 09:50:44;;;;;;;5.10;3.33;;;19.40;99.90;;;;;;4972255;28;20480;-66
2023/10/06 09:53:13;;;;;;;3.77;2.87;;;19.50;99.90;;;;;;4972640;28;20461;-66
2023/10/06 09:55:41;;;;;;;6.53;3.60;;;19.60;99.90;;;;;;4971813;28;20467;-66
2023/10/06 09:58:08;;;;;;;4.93;3.10;;;19.50;99.90;;;;;;4972725;28;20886;-66
2023/10/06 10:00:40;;;;;;;4.90;3.13;;;19.70;99.90;;;;;;4972273;28;21292;-67
2023/10/06 10:03:12;;;;;;;5.10;3.47;;;19.80;99.90;;;;;;4972707;28;20460;-66
2023/10/06 10:05:39;;;;;;;5.70;2.87;;;20.00;99.90;;;;;;4971706;28;20460;-65
2023/10/06 10:08:07;;;;;;;4.43;3.27;;;20.20;99.90;;;;;;4971915;28;20838;-66
2023/10/06 10:10:36;;;;;;;4.47;3.30;;;20.30;99.90;;;;;;4964430;28;20469;-66
2023/10/06 10:13:31;;;;;;;4.90;3.27;;;20.40;99.90;;;;;;4972095;28;20485;-66
2023/10/06 10:16:13;;;;;;;4.40;3.20;;;20.30;99.90;;;;;;4971954;28;20813;-66
2023/10/06 10:18:46;;;;;;;4.30;3.20;;;20.30;99.90;;;;;;4971945;28;20467;-66
2023/10/06 10:21:16;;;;;;;4.37;3.17;;;20.40;99.90;;;;;;4972734;28;20993;-65
2023/10/06 10:23:44;;;;;;;7.93;3.30;;;20.10;99.90;;;;;;4971937;28;20966;-66
2023/10/06 10:26:16;;;;;;;5.73;3.30;;;19.70;99.90;;;;;;4971807;28;20467;-66
2023/10/06 10:28:43;;;;;;;4.40;3.07;;;19.80;99.90;;;;;;4971820;28;21227;-66
2023/10/06 10:31:17;;;;;;;6.47;3.73;;;19.70;99.90;;;;;;4971978;28;20523;-66
2023/10/06 10:33:46;;;;;;;5.33;3.10;;;19.80;99.90;;;;;;4971984;28;21290;-66
2023/10/06 10:36:20;;;;;;;5.57;3.23;;;20.00;99.90;;;;;;4975886;28;20469;-66
2023/10/06 10:38:58;;;;;;;5.03;3.40;;;20.30;99.90;;;;;;4975649;28;20471;-66
2023/10/06 10:41:27;;;;;;;3.73;2.83;;;20.60;99.90;;;;;;4976110;28;20915;-66
2023/10/06 10:43:55;;;;;;;4.60;2.73;;;20.80;99.90;;;;;;4975518;28;20467;-66
2023/10/06 10:46:33;;;;;;;5.70;2.70;;;21.00;99.90;;;;;;4975865;28;20466;-66
2023/10/06 10:49:01;;;;;;;3.73;2.73;;;21.10;99.90;;;;;;4975188;28;20497;-66
2023/10/06 10:51:33;;;;;;;4.20;3.17;;;21.30;99.90;;;;;;4975742;28;20517;-66
2023/10/06 10:54:00;;;;;;;5.63;3.10;;;21.40;99.90;;;;;;4975604;28;20497;-67
2023/10/06 10:56:35;;;;;;;3.70;2.90;;;21.40;99.90;;;;;;4975435;28;20514;-67
2023/10/06 10:59:02;;;;;;;6.07;3.10;;;21.50;99.90;;;;;;4975148;28;20467;-67
2023/10/06 11:01:32;;;;;;;6.70;2.70;;;21.70;99.90;;;;;;4975782;28;20491;-67
2023/10/06 11:04:25;;;;;;;4.07;3.43;;;21.90;99.90;;;;;;4975225;28;20467;-67
2023/10/06 11:06:55;;;;;;;4.97;2.80;;;22.10;99.90;;;;;;4974986;28;20466;-67
2023/10/06 11:09:29;;;;;;;6.40;3.30;;;22.20;99.90;;;;;;4975518;28;20487;-67
2023/10/06 11:11:56;;;;;;;4.33;3.37;;;22.20;99.90;;;;;;4974957;28;20942;-67
2023/10/06 11:14:25;;;;;;;5.20;3.07;;;22.30;99.90;;;;;;4975321;28;20502;-67
2023/10/06 11:16:55;;;;;;;6.00;3.47;;;22.50;99.90;;;;;;4974800;28;20470;-67
2023/10/06 11:19:22;;;;;;;3.70;2.73;;;22.60;99.90;;;;;;4974221;28;20467;-67
2023/10/06 11:21:53;;;;;;;5.70;3.20;;;22.70;99.90;;;;;;4967780;28;21033;-67
2023/10/06 11:24:26;;;;;;;5.80;3.50;;;22.80;99.90;;;;;;4975207;28;20511;-67
2023/10/06 11:26:53;;;;;;;7.03;3.80;;;22.90;99.90;;;;;;4974593;28;20463;-67
2023/10/06 11:29:32;;;;;;;4.63;3.13;;;23.00;99.90;;;;;;4975654;28;20493;-67
2023/10/06 11:32:01;;;;;;;4.43;2.63;;;23.10;99.90;;;;;;4974640;28;20493;-67
2023/10/06 11:34:29;;;;;;;4.43;3.20;;;23.10;99.90;;;;;;4975012;28;20459;-67
2023/10/06 11:36:56;;;;;;;7.10;3.53;;;23.20;99.90;;;;;;4974345;28;20463;-67
2023/10/06 11:39:24;;;;;;;4.50;3.33;;;23.30;99.90;;;;;;4975195;28;20495;-67
2023/10/06 11:41:52;;;;;;;5.00;3.30;;;23.30;99.90;;;;;;4974630;28;20487;-67
2023/10/06 11:44:20;;;;;;;6.00;3.17;;;23.30;99.90;;;;;;4974858;28;20463;-67
2023/10/06 11:46:52;;;;;;;5.13;2.97;;;23.30;99.90;;;;;;4974040;28;20467;-67
2023/10/06 11:49:20;;;;;;;4.30;3.40;;;23.40;99.90;;;;;;4974991;28;20537;-67
2023/10/06 11:51:47;;;;;;;5.43;3.80;;;23.60;99.90;;;;;;4974431;28;20851;-67
2023/10/06 11:54:14;;;;;;;5.20;3.33;;;23.60;99.90;;;;;;4975002;28;20542;-65
2023/10/06 11:56:49;;;;;;;4.47;3.30;;;23.70;99.90;;;;;;4970134;28;20463;-65
2023/10/06 11:59:22;;;;;;;7.50;3.33;;;23.70;99.90;;;;;;4972660;28;20837;-65
2023/10/06 12:01:49;;;;;;;5.30;3.17;;;23.70;99.90;;;;;;4973327;28;20479;-65
2023/10/06 12:04:30;;;;;;;6.07;3.27;;;23.70;99.90;;;;;;4973897;28;20467;-65
2023/10/06 12:06:57;;;;;;;6.20;3.73;;;23.80;99.90;;;;;;4972838;28;20829;-65
2023/10/06 12:09:24;;;;;;;5.60;3.60;;;23.70;99.90;;;;;;4973932;28;20514;-67
2023/10/06 12:11:53;;;;;;;5.23;3.30;;;23.70;99.90;;;;;;4973310;28;20483;-67
2023/10/06 12:14:20;;;;;;;4.87;3.00;;;23.70;99.90;;;;;;4974086;28;20472;-67
2023/10/06 12:16:47;;;;;;;4.07;3.03;;;23.80;99.90;;;;;;4973616;28;20471;-67
2023/10/06 12:19:14;;;;;;;5.83;3.23;;;23.80;99.90;;;;;;4974286;28;20975;-67
2023/10/06 12:21:43;;;;;;;6.13;3.60;;;23.70;98.60;;;;;;4973964;28;20493;-67
2023/10/06 12:24:11;;;;;;;6.80;3.70;;;23.70;99.40;;;;;;4974729;28;20886;-65
2023/10/06 12:26:39;;;;;;;4.03;3.00;;;23.70;99.90;;;;;;4975432;28;20909;-65
2023/10/06 12:29:05;;;;;;;8.40;3.63;;;23.80;99.70;;;;;;4973648;28;20866;-65
2023/10/06 12:31:33;;;;;;;5.60;3.67;;;23.90;99.90;;;;;;4973248;28;20490;-65
2023/10/06 12:34:03;;;;;;;8.20;4.20;;;24.00;99.40;;;;;;4972728;28;20492;-65
2023/10/06 12:36:31;;;;;;;6.40;3.63;;;24.10;99.50;;;;;;4973281;28;20522;-65
2023/10/06 12:39:00;;;;;;;6.80;3.70;;;24.10;98.00;;;;;;4972564;28;20471;-66
2023/10/06 12:41:27;;;;;;;4.80;3.37;;;24.00;99.50;;;;;;4973996;28;20545;-66
2023/10/06 12:43:53;;;;;;;6.13;3.40;;;24.10;99.50;;;;;;4973571;28;20466;-66
2023/10/06 12:46:20;;;;;;;7.27;3.70;;;24.10;99.90;;;;;;4973638;28;20558;-66
2023/10/06 12:48:47;;;;;;;3.73;3.43;;;24.10;99.90;;;;;;4973800;28;20514;-66
2023/10/06 12:51:14;;;;;;;6.10;3.63;;;24.00;99.90;;;;;;4973300;28;20490;-66
2023/10/06 12:53:41;;;;;;;6.10;3.23;;;24.00;99.90;;;;;;4973620;28;20459;-66
2023/10/06 12:56:09;;;;;;;6.67;3.40;;;23.90;99.90;;;;;;4972662;28;20553;-66
2023/10/06 12:58:36;;;;;;;6.07;3.43;;;23.90;99.90;;;;;;4973132;28;20463;-66
2023/10/06 13:01:07;;;;;;;5.67;3.40;;;23.70;99.90;;;;;;4973212;28;20490;-66
2023/10/06 13:03:34;;;;;;;4.23;2.90;;;23.60;99.90;;;;;;4972889;28;20998;-66
2023/10/06 13:06:03;;;;;;;4.93;3.27;;;23.50;99.90;;;;;;4949052;28;20467;-66
2023/10/06 13:08:30;;;;;;;5.43;3.57;;;23.50;99.90;;;;;;4972336;28;20467;-66
2023/10/06 13:10:56;;;;;;;6.60;3.70;;;23.50;99.90;;;;;;4973150;28;20491;-66
2023/10/06 13:13:24;;;;;;;5.70;3.77;;;23.50;99.90;;;;;;4972683;28;20968;-66
2023/10/06 13:15:51;;;;;;;5.63;3.27;;;23.50;99.90;;;;;;4971914;28;20471;-66
2023/10/06 13:18:18;;;;;;;4.67;3.40;;;23.50;99.90;;;;;;4960776;28;20468;-66
2023/10/06 13:20:45;;;;;;;3.50;2.90;;;23.50;99.90;;;;;;4970511;28;20845;-66
2023/10/06 13:23:12;;;;;;;6.83;3.87;;;23.50;99.90;;;;;;4967331;28;20479;-66
2023/10/06 13:25:39;;;;;;;6.37;3.53;;;23.50;99.90;;;;;;4972550;28;20470;-66
2023/10/06 13:28:14;;;;;;;5.83;3.27;;;23.40;99.90;;;;;;4972744;28;20517;-66
2023/10/06 13:30:43;;;;;;;5.27;2.77;;;23.30;99.90;;;;;;4972821;28;20495;-66
2023/10/06 13:33:10;;;;;;;3.93;2.77;;;23.40;99.90;;;;;;4972547;28;20463;-66
2023/10/06 13:35:37;;;;;;;4.33;3.00;;;23.40;99.90;;;;;;4972485;28;20463;-66
2023/10/06 13:38:05;;;;;;;6.20;3.40;;;23.40;99.90;;;;;;4972512;28;20471;-66
2023/10/06 13:40:34;;;;;;;4.87;3.20;;;23.40;99.90;;;;;;4972911;28;20522;-66
2023/10/06 13:43:01;;;;;;;5.57;3.30;;;23.50;99.90;;;;;;4969892;28;20517;-66
2023/10/06 13:45:30;;;;;;;5.80;3.60;;;23.60;99.90;;;;;;4972250;28;20530;-66
2023/10/06 13:47:59;;;;;;;3.23;2.93;;;23.60;99.90;;;;;;4972228;28;20459;-66
2023/10/06 13:50:30;;;;;;;4.07;2.77;;;23.70;99.90;;;;;;4972510;28;21003;-66
2023/10/06 13:52:58;;;;;;;5.67;3.60;;;23.70;99.90;;;;;;4972939;28;20835;-66
2023/10/06 13:55:26;;;;;;;4.23;2.73;;;23.80;98.90;;;;;;4972253;28;20956;-66
2023/10/06 13:57:54;;;;;;;3.80;2.93;;;23.70;99.90;;;;;;4971476;28;21023;-66
2023/10/06 14:00:29;;;;;;;5.60;3.50;;;23.70;99.10;;;;;;4970777;28;20518;-66
2023/10/06 14:02:59;;;;;;;5.10;3.00;;;23.60;99.90;;;;;;4972141;28;21051;-66
2023/10/06 14:05:30;;;;;;;4.93;2.87;;;23.50;99.90;;;;;;4967099;28;20464;-66
2023/10/06 14:07:58;;;;;;;6.97;3.20;;;23.40;99.90;;;;;;4971967;28;20463;-66
2023/10/06 14:10:25;;;;;;;5.63;3.60;;;23.30;99.90;;;;;;4971822;28;20570;-66
2023/10/06 14:13:00;;;;;;;4.40;3.00;;;23.10;99.90;;;;;;4968675;28;20494;-66
2023/10/06 14:15:40;;;;;;;5.00;3.23;;;22.80;99.90;;;;;;4964379;28;20978;-66
2023/10/06 14:18:12;;;;;;;6.83;3.70;;;22.60;99.90;;;;;;4967208;28;20982;-66
2023/10/06 14:20:40;;;;;;;4.30;3.40;;;22.30;99.90;;;;;;4969409;28;20538;-66
2023/10/06 14:23:09;;;;;;;3.97;3.40;;;22.10;99.90;;;;;;4969186;28;21015;-66
2023/10/06 14:25:36;;;;;;;5.60;3.53;;;21.90;99.90;;;;;;4968599;28;20467;-66
2023/10/06 14:28:03;;;;;;;5.07;3.47;;;21.70;99.90;;;;;;4969046;28;20470;-66
2023/10/06 14:30:30;;;;;;;6.00;3.90;;;21.50;99.90;;;;;;4967178;28;20483;-66
2023/10/06 14:33:15;;;;;;;5.20;3.50;;;21.40;99.90;;;;;;4965333;28;20468;-66
2023/10/06 14:35:59;;;;;;;3.90;2.67;;;21.30;99.90;;;;;;4968761;28;20471;-66
2023/10/06 14:46:49;;;;;;;4.67;3.50;;;20.80;99.90;;;;;;4966496;28;20990;-66
2023/10/06 14:49:23;;;;;;;5.50;3.40;;;20.80;99.90;;;;;;4971480;28;20940;-66
2023/10/06 14:51:54;;;;;;;6.40;3.47;;;20.90;99.90;;;;;;4971786;28;20498;-66
2023/10/06 14:54:21;;;;;;;4.20;3.07;;;20.80;99.90;;;;;;4971746;28;20908;-66
2023/10/06 14:56:48;;;;;;;6.07;3.33;;;20.70;99.90;;;;;;4971596;28;20471;-66
2023/10/06 14:59:18;;;;;;;3.53;3.00;;;20.60;99.90;;;;;;4971731;28;20470;-66
2023/10/06 15:01:45;;;;;;;7.17;3.80;;;20.60;99.90;;;;;;4972061;28;20490;-66
2023/10/06 15:04:12;;;;;;;5.07;3.20;;;20.50;99.90;;;;;;4971557;28;20466;-67
2023/10/06 15:06:39;;;;;;;4.90;3.13;;;20.40;99.90;;;;;;4971785;28;20955;-74
2023/10/06 15:09:08;;;;;;;4.00;2.90;;;20.40;99.90;;;;;;4972363;28;20985;-68
2023/10/06 15:11:40;;;;;;;3.00;2.50;;;20.30;99.90;;;;;;4971402;28;20537;-68
2023/10/06 15:14:09;;;;;;;4.07;3.17;;;20.20;99.90;;;;;;4971159;28;20463;-67
2023/10/06 15:16:37;;;;;;;4.47;3.63;;;20.10;99.90;;;;;;4971094;28;20507;-67
2023/10/06 15:19:05;;;;;;;5.00;3.20;;;20.00;99.90;;;;;;4971556;28;20958;-67
2023/10/06 15:21:34;;;;;;;5.00;3.47;;;19.80;99.90;;;;;;4974703;28;20486;-67
2023/10/06 15:24:02;;;;;;;7.37;3.47;;;19.70;99.90;;;;;;4971435;28;20557;-67
2023/10/06 15:26:30;;;;;;;4.67;3.37;;;19.60;99.90;;;;;;4970462;28;20551;-67
2023/10/06 15:28:56;;;;;;;7.43;4.17;;;19.40;99.90;;;;;;4974150;28;20501;-67
2023/10/06 15:31:24;;;;;;;6.20;4.00;;;19.30;99.90;;;;;;4974098;28;20496;-67
2023/10/06 15:33:51;;;;;;;6.87;3.77;;;19.20;99.90;;;;;;4974638;28;20482;-67
2023/10/06 15:36:19;;;;;;;5.23;3.47;;;19.10;99.90;;;;;;4974056;28;20470;-67
2023/10/06 15:38:46;;;;;;;4.87;3.73;;;19.10;99.90;;;;;;4974650;28;20931;-67
2023/10/06 15:41:15;;;;;;;5.20;2.97;;;19.00;99.90;;;;;;4974488;28;20524;-67
2023/10/06 15:43:45;;;;;;;5.00;3.20;;;18.90;99.90;;;;;;4974865;28;20590;-67
2023/10/06 15:46:15;;;;;;;4.07;3.23;;;18.80;99.90;;;;;;4974640;28;20473;-66
2023/10/06 15:48:42;;;;;;;5.00;3.47;;;18.70;99.90;;;;;;4974946;28;20484;-67
2023/10/06 15:51:11;;;;;;;4.50;3.23;;;18.70;99.90;;;;;;4974977;28;20500;-67
2023/10/06 15:53:39;;;;;;;5.00;3.10;;;18.60;99.90;;;;;;4974587;28;20478;-67
2023/10/06 15:56:08;;;;;;;5.53;3.30;;;18.60;99.90;;;;;;4974477;28;20880;-67
2023/10/06 15:58:36;;;;;;;3.80;3.00;;;18.50;99.90;;;;;;4971002;28;20522;-67
2023/10/06 16:01:07;;;;;;;5.70;2.70;;;18.30;99.90;;;;;;4974864;28;20523;-66
2023/10/06 16:03:34;;;;;;;5.07;2.90;;;18.30;99.90;;;;;;4971079;28;20468;-67
2023/10/06 16:06:02;;;;;;;7.80;3.20;;;18.20;99.90;;;;;;4970784;28;20459;-67
2023/10/06 16:08:29;;;;;;;5.60;3.00;;;18.10;99.90;;;;;;4974957;28;20890;-66
2023/10/06 16:11:00;;;;;;;5.13;2.90;;;18.10;99.90;;;;;;4974615;28;21043;-66
2023/10/06 16:13:27;;;;;;;4.63;3.10;;;18.00;99.90;;;;;;4974088;28;20971;-66
2023/10/06 16:15:54;;;;;;;4.57;2.90;;;17.90;99.90;;;;;;4974355;28;20844;-67
2023/10/06 16:18:24;;;;;;;6.80;3.33;;;17.80;99.90;;;;;;4974490;28;20473;-67
2023/10/06 16:20:53;;;;;;;6.97;2.70;;;17.70;99.90;;;;;;4974920;28;20507;-66
2023/10/06 16:23:20;;;;;;;7.93;3.07;;;17.70;99.90;;;;;;4974529;28;20486;-66
2023/10/06 16:25:52;;;;;;;4.83;2.90;;;17.60;99.90;;;;;;4970206;28;20470;-66
2023/10/06 16:28:19;;;;;;;4.17;2.77;;;17.50;99.90;;;;;;4972184;28;20485;-66
2023/10/06 16:30:50;;;;;;;3.90;2.70;;;17.40;99.90;;;;;;4971730;28;20609;-67
2023/10/06 16:33:20;;;;;;;4.30;2.50;;;17.40;99.90;;;;;;4970826;28;20470;-66
2023/10/06 16:35:49;;;;;;;6.77;3.30;;;17.30;99.90;;;;;;4971660;28;20475;-66
2023/10/06 16:38:15;;;;;;;4.50;2.73;;;17.20;99.90;;;;;;4971046;28;20502;-67
2023/10/06 16:40:42;;;;;;;4.90;2.80;;;17.20;99.90;;;;;;4970902;28;20483;-67